Aérodrome :
LOGIN :

S'inscrire | Disclaimer

   EN    FR    IT 

 










Légende :    VFR   VFR Marginal   IFR   IFR Intensif   IFR Très Intensif
Visi : 
Plafond : 
>= 8 km
>= 3000ft
5 à 8 km
1000 à 3000 ft
1500m à 5 km
500 à 1000 ft
800 à 1500m
200 à 500 ft
< 800m
< 200 ft
Symboles :   Orages  Brouillard  Fortes neiges  Fortes précipitations  Vent > 20 kt
SIGMETs :   Divers  Orages  Givrage  Turbulence  Onde Orograph.  Cendres Volcan.







- Altitude de l'aérodrome : 209 ft
- Code IATA : CLY
- Voir les cartes d'approche


LFKC - Calvi

DERNIER METAR :
  • 210700Z AUTO 19017G27KT 160V230 CAVOK 20/08 Q1010 NOSIG

METARs EXPIRÉS :
  • 210630Z AUTO 19016KT 160V220 CAVOK 20/09 Q1010 BECMG 20017G27KT
  • 210600Z AUTO 19016KT 170V230 CAVOK 19/08 Q1010 BECMG 20017G27KT
  • 210530Z AUTO 20013G24KT 170V230 CAVOK 19/09 Q1009 NOSIG
  • 210500Z AUTO 20012KT 170V230 CAVOK 17/09 Q1009 BECMG 20017G27KT

TAF TAF LFKC
Valide du 21 à 03h jusqu'au 22 à 03h UTC


210200Z 2103/2203 20017G27KT 9999 FEW040 TX21/2112Z TN12/2103Z
TEMPO 2117/2124 21010G20KT
ATIS : +33 4 95 65 82 49
Pas de NOTAMs connus pour ce terrain.
1 SIGMET publié pour la FIR Marseille (LFMM) :
 
Onde orographique forte
LFMM SIGMET 1 VALID 210400/210800 LFPW
LFMM MARSEILLE FIR/UIR SEV MTW FCST E OF E00900 SFC/FL100 STNR NC=



MET'MAP, la Météo Aéronautique d'un coup d'oeil ! - Copyright ORBIFLY Décembre 2007 - Disclaimer

ORBIFLY MET'MAP TEAM :

Programmation & Développement : Alexandra Zaïnal
Conception & Développement : Baudouin d'Aumeries
Co-Programmation & Développement : Marc-Olivier Méhu
Soutien technique & logistique : Manuel Goepfert

Contact : metmap@orbifly.com




SOURCES & CREDITS :

   NOAA